sensor_id;sensor_type;location;lat;lon;timestamp;P1;durP1;ratioP1;P2;durP2;ratioP2
73421;SDS011;61637;47.760;-122.022;2024-01-11T00:00:01;8.7;;;6.2;;
73421;SDS011;61637;47.760;-122.022;2024-01-11T00:02:01;8.5;;;4.2;;
73421;SDS011;61637;47.760;-122.022;2024-01-11T00:04:01;7.1;;;2.7;;
73421;SDS011;61637;47.760;-122.022;2024-01-11T00:06:01;5.4;;;2.0;;
73421;SDS011;61637;47.760;-122.022;2024-01-11T00:08:01;7.2;;;3.2;;
73421;SDS011;61637;47.760;-122.022;2024-01-11T00:10:02;8.1;;;6.7;;
73421;SDS011;61637;47.760;-122.022;2024-01-11T00:12:03;8.8;;;7.9;;
73421;SDS011;61637;47.760;-122.022;2024-01-11T00:14:01;8.9;;;6.6;;
73421;SDS011;61637;47.760;-122.022;2024-01-11T00:16:01;9.8;;;8.8;;
73421;SDS011;61637;47.760;-122.022;2024-01-11T00:18:01;11.9;;;10.8;;
73421;SDS011;61637;47.760;-122.022;2024-01-11T00:20:01;16.3;;;14.8;;
73421;SDS011;61637;47.760;-122.022;2024-01-11T00:22:01;14.6;;;13.3;;
73421;SDS011;61637;47.760;-122.022;2024-01-11T00:24:01;13.7;;;12.1;;
73421;SDS011;61637;47.760;-122.022;2024-01-11T00:26:01;14.3;;;12.8;;
73421;SDS011;61637;47.760;-122.022;2024-01-11T00:28:01;15.1;;;13.7;;
73421;SDS011;61637;47.760;-122.022;2024-01-11T00:30:01;16.0;;;14.5;;
73421;SDS011;61637;47.760;-122.022;2024-01-11T00:32:01;16.4;;;15.1;;
73421;SDS011;61637;47.760;-122.022;2024-01-11T00:34:01;16.5;;;15.1;;
73421;SDS011;61637;47.760;-122.022;2024-01-11T00:36:02;17.0;;;15.5;;
73421;SDS011;61637;47.760;-122.022;2024-01-11T00:38:01;16.0;;;14.6;;
73421;SDS011;61637;47.760;-122.022;2024-01-11T00:40:01;15.2;;;13.8;;
73421;SDS011;61637;47.760;-122.022;2024-01-11T00:42:01;14.2;;;12.8;;
73421;SDS011;61637;47.760;-122.022;2024-01-11T00:44:01;10.9;;;9.7;;
73421;SDS011;61637;47.760;-122.022;2024-01-11T00:46:01;8.9;;;7.9;;
73421;SDS011;61637;47.760;-122.022;2024-01-11T00:48:01;10.3;;;9.1;;
73421;SDS011;61637;47.760;-122.022;2024-01-11T00:50:01;9.6;;;8.6;;
73421;SDS011;61637;47.760;-122.022;2024-01-11T00:52:01;11.1;;;9.1;;
73421;SDS011;61637;47.760;-122.022;2024-01-11T00:54:01;9.4;;;8.5;;
73421;SDS011;61637;47.760;-122.022;2024-01-11T00:56:01;11.6;;;9.9;;
73421;SDS011;61637;47.760;-122.022;2024-01-11T00:58:01;10.8;;;9.0;;
73421;SDS011;61637;47.760;-122.022;2024-01-11T01:00:01;14.9;;;13.4;;
73421;SDS011;61637;47.760;-122.022;2024-01-11T01:02:01;16.1;;;14.6;;
73421;SDS011;61637;47.760;-122.022;2024-01-11T01:04:01;13.8;;;12.5;;
73421;SDS011;61637;47.760;-122.022;2024-01-11T01:06:01;15.1;;;13.7;;
73421;SDS011;61637;47.760;-122.022;2024-01-11T01:08:01;13.7;;;12.4;;
73421;SDS011;61637;47.760;-122.022;2024-01-11T01:10:02;15.6;;;14.1;;
73421;SDS011;61637;47.760;-122.022;2024-01-11T01:12:01;17.5;;;15.8;;
73421;SDS011;61637;47.760;-122.022;2024-01-11T01:14:01;17.8;;;16.2;;
73421;SDS011;61637;47.760;-122.022;2024-01-11T01:16:01;19.0;;;17.3;;
73421;SDS011;61637;47.760;-122.022;2024-01-11T01:18:01;18.2;;;16.5;;
73421;SDS011;61637;47.760;-122.022;2024-01-11T01:20:01;19.6;;;17.8;;
73421;SDS011;61637;47.760;-122.022;2024-01-11T01:22:01;20.5;;;18.5;;
73421;SDS011;61637;47.760;-122.022;2024-01-11T01:24:01;19.8;;;17.8;;
73421;SDS011;61637;47.760;-122.022;2024-01-11T01:26:01;20.8;;;18.8;;
73421;SDS011;61637;47.760;-122.022;2024-01-11T01:28:01;20.0;;;18.1;;
73421;SDS011;61637;47.760;-122.022;2024-01-11T01:30:01;20.0;;;18.2;;
73421;SDS011;61637;47.760;-122.022;2024-01-11T01:32:01;20.7;;;18.8;;
73421;SDS011;61637;47.760;-122.022;2024-01-11T01:34:01;25.1;;;21.5;;
73421;SDS011;61637;47.760;-122.022;2024-01-11T01:36:01;23.6;;;21.4;;
73421;SDS011;61637;47.760;-122.022;2024-01-11T01:38:01;23.5;;;21.1;;
73421;SDS011;61637;47.760;-122.022;2024-01-11T01:40:01;21.0;;;19.0;;
73421;SDS011;61637;47.760;-122.022;2024-01-11T01:42:01;24.6;;;22.3;;
73421;SDS011;61637;47.760;-122.022;2024-01-11T01:44:01;24.9;;;22.4;;
73421;SDS011;61637;47.760;-122.022;2024-01-11T01:46:02;25.1;;;22.7;;
73421;SDS011;61637;47.760;-122.022;2024-01-11T01:48:01;25.3;;;22.9;;
73421;SDS011;61637;47.760;-122.022;2024-01-11T01:50:02;33.0;;;22.3;;
73421;SDS011;61637;47.760;-122.022;2024-01-11T01:52:01;23.6;;;21.3;;
73421;SDS011;61637;47.760;-122.022;2024-01-11T01:54:02;25.3;;;22.5;;
73421;SDS011;61637;47.760;-122.022;2024-01-11T01:56:02;23.9;;;21.6;;
73421;SDS011;61637;47.760;-122.022;2024-01-11T01:58:04;23.1;;;20.6;;
73421;SDS011;61637;47.760;-122.022;2024-01-11T02:00:01;22.8;;;20.6;;
73421;SDS011;61637;47.760;-122.022;2024-01-11T02:02:01;22.5;;;20.3;;
73421;SDS011;61637;47.760;-122.022;2024-01-11T02:04:01;25.2;;;22.6;;
73421;SDS011;61637;47.760;-122.022;2024-01-11T02:06:02;22.7;;;20.5;;
73421;SDS011;61637;47.760;-122.022;2024-01-11T02:08:03;24.0;;;21.7;;
73421;SDS011;61637;47.760;-122.022;2024-01-11T02:10:02;21.7;;;19.7;;
73421;SDS011;61637;47.760;-122.022;2024-01-11T02:12:02;19.2;;;17.4;;
73421;SDS011;61637;47.760;-122.022;2024-01-11T02:14:01;21.3;;;19.3;;
73421;SDS011;61637;47.760;-122.022;2024-01-11T02:16:01;21.0;;;19.1;;
73421;SDS011;61637;47.760;-122.022;2024-01-11T02:18:01;22.0;;;19.7;;
73421;SDS011;61637;47.760;-122.022;2024-01-11T02:20:01;21.6;;;19.5;;
73421;SDS011;61637;47.760;-122.022;2024-01-11T02:22:08;20.8;;;18.7;;
73421;SDS011;61637;47.760;-122.022;2024-01-11T02:24:03;22.4;;;20.0;;
73421;SDS011;61637;47.760;-122.022;2024-01-11T02:26:01;20.3;;;18.5;;
73421;SDS011;61637;47.760;-122.022;2024-01-11T02:28:01;20.4;;;18.5;;
73421;SDS011;61637;47.760;-122.022;2024-01-11T02:30:01;19.6;;;17.8;;
73421;SDS011;61637;47.760;-122.022;2024-01-11T02:32:03;19.4;;;17.6;;
73421;SDS011;61637;47.760;-122.022;2024-01-11T02:34:01;19.7;;;17.7;;
73421;SDS011;61637;47.760;-122.022;2024-01-11T02:36:01;17.9;;;16.2;;
73421;SDS011;61637;47.760;-122.022;2024-01-11T02:38:01;19.1;;;17.4;;
73421;SDS011;61637;47.760;-122.022;2024-01-11T02:40:01;18.1;;;16.5;;
73421;SDS011;61637;47.760;-122.022;2024-01-11T02:42:01;17.0;;;15.4;;
73421;SDS011;61637;47.760;-122.022;2024-01-11T02:44:01;19.1;;;17.3;;
73421;SDS011;61637;47.760;-122.022;2024-01-11T02:46:02;17.3;;;15.6;;
73421;SDS011;61637;47.760;-122.022;2024-01-11T02:48:01;18.4;;;16.8;;
73421;SDS011;61637;47.760;-122.022;2024-01-11T02:50:01;19.7;;;17.8;;
73421;SDS011;61637;47.760;-122.022;2024-01-11T02:52:01;19.7;;;17.8;;
73421;SDS011;61637;47.760;-122.022;2024-01-11T02:54:01;21.6;;;19.7;;
73421;SDS011;61637;47.760;-122.022;2024-01-11T02:56:01;20.9;;;19.0;;
73421;SDS011;61637;47.760;-122.022;2024-01-11T02:58:01;24.5;;;22.1;;
73421;SDS011;61637;47.760;-122.022;2024-01-11T03:00:01;24.5;;;22.1;;
73421;SDS011;61637;47.760;-122.022;2024-01-11T03:02:01;24.5;;;22.1;;
73421;SDS011;61637;47.760;-122.022;2024-01-11T03:04:01;24.4;;;22.1;;
73421;SDS011;61637;47.760;-122.022;2024-01-11T03:06:01;25.6;;;23.1;;
73421;SDS011;61637;47.760;-122.022;2024-01-11T03:08:01;25.1;;;22.7;;
73421;SDS011;61637;47.760;-122.022;2024-01-11T03:10:01;23.2;;;21.1;;
73421;SDS011;61637;47.760;-122.022;2024-01-11T03:12:01;24.6;;;22.3;;
73421;SDS011;61637;47.760;-122.022;2024-01-11T03:14:01;24.7;;;22.3;;
73421;SDS011;61637;47.760;-122.022;2024-01-11T03:16:01;25.5;;;22.9;;
73421;SDS011;61637;47.760;-122.022;2024-01-11T03:18:01;25.3;;;22.8;;
73421;SDS011;61637;47.760;-122.022;2024-01-11T03:20:01;26.8;;;23.3;;
73421;SDS011;61637;47.760;-122.022;2024-01-11T03:22:01;24.2;;;21.9;;
73421;SDS011;61637;47.760;-122.022;2024-01-11T03:24:01;24.8;;;22.3;;
73421;SDS011;61637;47.760;-122.022;2024-01-11T03:26:01;24.0;;;21.8;;
73421;SDS011;61637;47.760;-122.022;2024-01-11T03:28:01;23.1;;;21.0;;
73421;SDS011;61637;47.760;-122.022;2024-01-11T03:30:01;21.4;;;19.4;;
73421;SDS011;61637;47.760;-122.022;2024-01-11T03:32:01;22.8;;;20.6;;
73421;SDS011;61637;47.760;-122.022;2024-01-11T03:34:01;21.4;;;19.5;;
73421;SDS011;61637;47.760;-122.022;2024-01-11T03:36:06;21.2;;;19.3;;
73421;SDS011;61637;47.760;-122.022;2024-01-11T03:38:01;21.4;;;19.4;;
73421;SDS011;61637;47.760;-122.022;2024-01-11T03:40:02;22.1;;;20.0;;
73421;SDS011;61637;47.760;-122.022;2024-01-11T03:42:01;23.0;;;20.8;;
73421;SDS011;61637;47.760;-122.022;2024-01-11T03:44:01;20.6;;;18.6;;
73421;SDS011;61637;47.760;-122.022;2024-01-11T03:46:01;22.5;;;20.3;;
73421;SDS011;61637;47.760;-122.022;2024-01-11T03:48:02;23.2;;;21.0;;
73421;SDS011;61637;47.760;-122.022;2024-01-11T03:50:01;25.0;;;22.5;;
73421;SDS011;61637;47.760;-122.022;2024-01-11T03:52:01;23.0;;;20.8;;
73421;SDS011;61637;47.760;-122.022;2024-01-11T03:54:01;23.4;;;21.3;;
73421;SDS011;61637;47.760;-122.022;2024-01-11T03:56:01;25.2;;;22.7;;
73421;SDS011;61637;47.760;-122.022;2024-01-11T03:58:01;24.6;;;22.4;;
73421;SDS011;61637;47.760;-122.022;2024-01-11T04:00:01;23.0;;;20.9;;
73421;SDS011;61637;47.760;-122.022;2024-01-11T04:02:01;23.9;;;21.5;;
73421;SDS011;61637;47.760;-122.022;2024-01-11T04:04:01;22.9;;;20.7;;
73421;SDS011;61637;47.760;-122.022;2024-01-11T04:06:01;24.3;;;21.8;;
73421;SDS011;61637;47.760;-122.022;2024-01-11T04:08:03;22.7;;;20.7;;
73421;SDS011;61637;47.760;-122.022;2024-01-11T04:10:01;22.5;;;20.3;;
73421;SDS011;61637;47.760;-122.022;2024-01-11T04:12:01;23.2;;;21.1;;
73421;SDS011;61637;47.760;-122.022;2024-01-11T04:14:01;20.7;;;18.9;;
73421;SDS011;61637;47.760;-122.022;2024-01-11T04:16:04;22.1;;;20.0;;
73421;SDS011;61637;47.760;-122.022;2024-01-11T04:18:01;21.4;;;19.5;;
73421;SDS011;61637;47.760;-122.022;2024-01-11T04:20:01;21.5;;;19.5;;
73421;SDS011;61637;47.760;-122.022;2024-01-11T04:22:01;20.2;;;18.3;;
73421;SDS011;61637;47.760;-122.022;2024-01-11T04:24:01;21.4;;;19.4;;
73421;SDS011;61637;47.760;-122.022;2024-01-11T04:26:01;19.9;;;17.9;;
73421;SDS011;61637;47.760;-122.022;2024-01-11T04:28:01;21.0;;;19.1;;
73421;SDS011;61637;47.760;-122.022;2024-01-11T04:30:01;22.6;;;20.3;;
73421;SDS011;61637;47.760;-122.022;2024-01-11T04:32:01;20.5;;;18.5;;
73421;SDS011;61637;47.760;-122.022;2024-01-11T04:34:02;20.7;;;18.8;;
73421;SDS011;61637;47.760;-122.022;2024-01-11T04:36:01;19.8;;;18.0;;
73421;SDS011;61637;47.760;-122.022;2024-01-11T04:38:02;20.3;;;18.4;;
73421;SDS011;61637;47.760;-122.022;2024-01-11T04:40:01;20.3;;;18.4;;
73421;SDS011;61637;47.760;-122.022;2024-01-11T04:42:02;19.3;;;17.5;;
73421;SDS011;61637;47.760;-122.022;2024-01-11T04:44:01;19.6;;;17.8;;
73421;SDS011;61637;47.760;-122.022;2024-01-11T04:46:02;22.8;;;20.5;;
73421;SDS011;61637;47.760;-122.022;2024-01-11T04:48:01;22.0;;;20.0;;
73421;SDS011;61637;47.760;-122.022;2024-01-11T04:50:01;25.3;;;22.6;;
73421;SDS011;61637;47.760;-122.022;2024-01-11T04:52:01;24.8;;;22.3;;
73421;SDS011;61637;47.760;-122.022;2024-01-11T04:54:01;25.3;;;22.8;;
73421;SDS011;61637;47.760;-122.022;2024-01-11T04:56:01;23.4;;;21.1;;
73421;SDS011;61637;47.760;-122.022;2024-01-11T04:58:01;24.3;;;21.9;;
73421;SDS011;61637;47.760;-122.022;2024-01-11T05:00:01;22.9;;;20.7;;
73421;SDS011;61637;47.760;-122.022;2024-01-11T05:02:01;22.9;;;20.7;;
73421;SDS011;61637;47.760;-122.022;2024-01-11T05:04:01;24.1;;;21.8;;
73421;SDS011;61637;47.760;-122.022;2024-01-11T05:06:01;23.1;;;20.9;;
73421;SDS011;61637;47.760;-122.022;2024-01-11T05:08:01;22.8;;;20.3;;
73421;SDS011;61637;47.760;-122.022;2024-01-11T05:10:01;21.0;;;19.0;;
73421;SDS011;61637;47.760;-122.022;2024-01-11T05:12:01;24.4;;;22.0;;
73421;SDS011;61637;47.760;-122.022;2024-01-11T05:14:01;22.5;;;20.5;;
73421;SDS011;61637;47.760;-122.022;2024-01-11T05:16:01;27.5;;;22.9;;
73421;SDS011;61637;47.760;-122.022;2024-01-11T05:18:01;23.5;;;21.2;;
73421;SDS011;61637;47.760;-122.022;2024-01-11T05:20:01;23.4;;;21.2;;
73421;SDS011;61637;47.760;-122.022;2024-01-11T05:22:01;22.9;;;20.8;;
73421;SDS011;61637;47.760;-122.022;2024-01-11T05:24:01;23.2;;;21.1;;
73421;SDS011;61637;47.760;-122.022;2024-01-11T05:26:01;23.5;;;21.0;;
73421;SDS011;61637;47.760;-122.022;2024-01-11T05:28:02;25.5;;;23.0;;
73421;SDS011;61637;47.760;-122.022;2024-01-11T05:30:01;22.8;;;20.6;;
73421;SDS011;61637;47.760;-122.022;2024-01-11T05:32:01;23.8;;;21.6;;
73421;SDS011;61637;47.760;-122.022;2024-01-11T05:34:02;22.6;;;20.4;;
73421;SDS011;61637;47.760;-122.022;2024-01-11T05:36:04;24.6;;;22.3;;
73421;SDS011;61637;47.760;-122.022;2024-01-11T05:38:01;23.5;;;21.2;;
73421;SDS011;61637;47.760;-122.022;2024-01-11T05:40:03;25.6;;;23.2;;
73421;SDS011;61637;47.760;-122.022;2024-01-11T05:42:01;24.2;;;21.9;;
73421;SDS011;61637;47.760;-122.022;2024-01-11T05:44:01;25.5;;;22.9;;
73421;SDS011;61637;47.760;-122.022;2024-01-11T05:46:01;27.2;;;24.3;;
73421;SDS011;61637;47.760;-122.022;2024-01-11T05:48:01;24.6;;;22.2;;
73421;SDS011;61637;47.760;-122.022;2024-01-11T05:50:01;26.5;;;23.8;;
73421;SDS011;61637;47.760;-122.022;2024-01-11T05:52:01;24.8;;;22.4;;
73421;SDS011;61637;47.760;-122.022;2024-01-11T05:54:01;23.6;;;21.2;;
73421;SDS011;61637;47.760;-122.022;2024-01-11T05:56:01;21.9;;;19.9;;
73421;SDS011;61637;47.760;-122.022;2024-01-11T05:58:01;22.7;;;20.6;;
73421;SDS011;61637;47.760;-122.022;2024-01-11T06:00:01;23.5;;;21.4;;
73421;SDS011;61637;47.760;-122.022;2024-01-11T06:02:01;27.7;;;24.9;;
73421;SDS011;61637;47.760;-122.022;2024-01-11T06:04:01;24.5;;;22.2;;
73421;SDS011;61637;47.760;-122.022;2024-01-11T06:06:02;24.4;;;22.2;;
73421;SDS011;61637;47.760;-122.022;2024-01-11T06:08:01;24.8;;;22.4;;
73421;SDS011;61637;47.760;-122.022;2024-01-11T06:10:01;22.5;;;20.5;;
73421;SDS011;61637;47.760;-122.022;2024-01-11T06:12:01;22.6;;;20.5;;
73421;SDS011;61637;47.760;-122.022;2024-01-11T06:14:01;23.6;;;21.1;;
73421;SDS011;61637;47.760;-122.022;2024-01-11T06:16:01;24.0;;;21.7;;
73421;SDS011;61637;47.760;-122.022;2024-01-11T06:18:01;25.4;;;23.0;;
73421;SDS011;61637;47.760;-122.022;2024-01-11T06:20:01;22.9;;;20.7;;
73421;SDS011;61637;47.760;-122.022;2024-01-11T06:22:01;23.6;;;21.3;;
73421;SDS011;61637;47.760;-122.022;2024-01-11T06:24:03;24.8;;;22.4;;
73421;SDS011;61637;47.760;-122.022;2024-01-11T06:26:01;25.3;;;22.7;;
73421;SDS011;61637;47.760;-122.022;2024-01-11T06:28:03;24.0;;;21.8;;
73421;SDS011;61637;47.760;-122.022;2024-01-11T06:30:01;24.3;;;21.9;;
73421;SDS011;61637;47.760;-122.022;2024-01-11T06:32:01;23.6;;;21.2;;
73421;SDS011;61637;47.760;-122.022;2024-01-11T06:34:01;22.9;;;20.8;;
73421;SDS011;61637;47.760;-122.022;2024-01-11T06:36:01;23.9;;;21.7;;
73421;SDS011;61637;47.760;-122.022;2024-01-11T06:38:01;25.9;;;23.4;;
73421;SDS011;61637;47.760;-122.022;2024-01-11T06:40:01;29.1;;;26.2;;
73421;SDS011;61637;47.760;-122.022;2024-01-11T06:42:01;25.8;;;23.4;;
73421;SDS011;61637;47.760;-122.022;2024-01-11T06:44:01;27.5;;;24.7;;
73421;SDS011;61637;47.760;-122.022;2024-01-11T06:46:02;28.3;;;25.5;;
73421;SDS011;61637;47.760;-122.022;2024-01-11T06:48:01;26.7;;;24.2;;
73421;SDS011;61637;47.760;-122.022;2024-01-11T06:50:01;24.8;;;22.3;;
73421;SDS011;61637;47.760;-122.022;2024-01-11T06:52:01;26.1;;;23.4;;
73421;SDS011;61637;47.760;-122.022;2024-01-11T06:54:01;23.8;;;21.6;;
73421;SDS011;61637;47.760;-122.022;2024-01-11T06:56:01;23.5;;;21.4;;
73421;SDS011;61637;47.760;-122.022;2024-01-11T06:58:01;24.7;;;22.5;;
73421;SDS011;61637;47.760;-122.022;2024-01-11T07:00:01;26.3;;;23.6;;
73421;SDS011;61637;47.760;-122.022;2024-01-11T07:02:01;25.9;;;23.4;;
73421;SDS011;61637;47.760;-122.022;2024-01-11T07:04:01;25.4;;;22.8;;
73421;SDS011;61637;47.760;-122.022;2024-01-11T07:06:01;26.4;;;23.9;;
73421;SDS011;61637;47.760;-122.022;2024-01-11T07:08:01;23.0;;;20.9;;
73421;SDS011;61637;47.760;-122.022;2024-01-11T07:10:01;22.6;;;20.5;;
73421;SDS011;61637;47.760;-122.022;2024-01-11T07:12:01;22.6;;;20.5;;
73421;SDS011;61637;47.760;-122.022;2024-01-11T07:14:01;25.7;;;23.2;;
73421;SDS011;61637;47.760;-122.022;2024-01-11T07:16:01;23.5;;;21.3;;
73421;SDS011;61637;47.760;-122.022;2024-01-11T07:18:01;26.0;;;23.6;;
73421;SDS011;61637;47.760;-122.022;2024-01-11T07:20:01;23.1;;;21.0;;
73421;SDS011;61637;47.760;-122.022;2024-01-11T07:22:01;22.7;;;20.6;;
73421;SDS011;61637;47.760;-122.022;2024-01-11T07:24:01;21.8;;;19.8;;
73421;SDS011;61637;47.760;-122.022;2024-01-11T07:26:01;22.8;;;20.8;;
73421;SDS011;61637;47.760;-122.022;2024-01-11T07:28:02;26.3;;;23.8;;
73421;SDS011;61637;47.760;-122.022;2024-01-11T07:30:01;24.0;;;21.7;;
73421;SDS011;61637;47.760;-122.022;2024-01-11T07:32:01;25.8;;;23.0;;
73421;SDS011;61637;47.760;-122.022;2024-01-11T07:34:01;25.3;;;22.9;;
73421;SDS011;61637;47.760;-122.022;2024-01-11T07:36:01;23.9;;;21.6;;
73421;SDS011;61637;47.760;-122.022;2024-01-11T07:38:01;26.2;;;23.6;;
73421;SDS011;61637;47.760;-122.022;2024-01-11T07:40:01;26.0;;;23.5;;
73421;SDS011;61637;47.760;-122.022;2024-01-11T07:42:01;24.6;;;22.3;;
73421;SDS011;61637;47.760;-122.022;2024-01-11T07:44:01;25.8;;;23.4;;
73421;SDS011;61637;47.760;-122.022;2024-01-11T07:46:01;27.1;;;24.2;;
73421;SDS011;61637;47.760;-122.022;2024-01-11T07:48:01;26.8;;;24.0;;
73421;SDS011;61637;47.760;-122.022;2024-01-11T07:50:01;25.1;;;22.9;;
73421;SDS011;61637;47.760;-122.022;2024-01-11T07:52:01;26.8;;;24.3;;
73421;SDS011;61637;47.760;-122.022;2024-01-11T07:54:01;30.1;;;27.2;;
73421;SDS011;61637;47.760;-122.022;2024-01-11T07:56:01;26.1;;;23.7;;
73421;SDS011;61637;47.760;-122.022;2024-01-11T07:58:01;27.9;;;25.1;;
73421;SDS011;61637;47.760;-122.022;2024-01-11T08:00:02;27.0;;;24.4;;
73421;SDS011;61637;47.760;-122.022;2024-01-11T08:02:02;28.1;;;25.3;;
73421;SDS011;61637;47.760;-122.022;2024-01-11T08:04:01;29.1;;;26.1;;
73421;SDS011;61637;47.760;-122.022;2024-01-11T08:06:01;26.5;;;23.9;;
73421;SDS011;61637;47.760;-122.022;2024-01-11T08:08:01;25.9;;;23.3;;
73421;SDS011;61637;47.760;-122.022;2024-01-11T08:10:01;26.0;;;23.5;;
73421;SDS011;61637;47.760;-122.022;2024-01-11T08:12:01;25.5;;;22.9;;
73421;SDS011;61637;47.760;-122.022;2024-01-11T08:14:01;26.0;;;23.4;;
73421;SDS011;61637;47.760;-122.022;2024-01-11T08:16:01;26.0;;;23.4;;
73421;SDS011;61637;47.760;-122.022;2024-01-11T08:18:01;27.1;;;24.4;;
73421;SDS011;61637;47.760;-122.022;2024-01-11T08:20:01;26.6;;;24.0;;
73421;SDS011;61637;47.760;-122.022;2024-01-11T08:22:01;32.0;;;27.7;;
73421;SDS011;61637;47.760;-122.022;2024-01-11T08:24:01;27.9;;;25.2;;
73421;SDS011;61637;47.760;-122.022;2024-01-11T08:26:01;25.7;;;23.1;;
73421;SDS011;61637;47.760;-122.022;2024-01-11T08:28:01;24.7;;;22.3;;
73421;SDS011;61637;47.760;-122.022;2024-01-11T08:30:02;28.1;;;25.3;;
73421;SDS011;61637;47.760;-122.022;2024-01-11T08:32:02;27.1;;;24.5;;
73421;SDS011;61637;47.760;-122.022;2024-01-11T08:34:01;28.8;;;25.8;;
73421;SDS011;61637;47.760;-122.022;2024-01-11T08:36:01;26.0;;;23.6;;
73421;SDS011;61637;47.760;-122.022;2024-01-11T08:38:01;27.6;;;24.9;;
73421;SDS011;61637;47.760;-122.022;2024-01-11T08:40:01;27.1;;;24.2;;
73421;SDS011;61637;47.760;-122.022;2024-01-11T08:42:01;24.7;;;22.3;;
73421;SDS011;61637;47.760;-122.022;2024-01-11T08:44:01;25.3;;;23.0;;
73421;SDS011;61637;47.760;-122.022;2024-01-11T08:46:01;25.6;;;23.0;;
73421;SDS011;61637;47.760;-122.022;2024-01-11T08:48:01;24.6;;;22.4;;
73421;SDS011;61637;47.760;-122.022;2024-01-11T08:50:02;23.4;;;21.1;;
73421;SDS011;61637;47.760;-122.022;2024-01-11T08:52:01;25.7;;;23.0;;
73421;SDS011;61637;47.760;-122.022;2024-01-11T08:54:02;24.1;;;21.9;;
73421;SDS011;61637;47.760;-122.022;2024-01-11T08:56:01;24.9;;;22.6;;
73421;SDS011;61637;47.760;-122.022;2024-01-11T08:58:02;26.1;;;23.3;;
73421;SDS011;61637;47.760;-122.022;2024-01-11T09:00:02;23.4;;;21.2;;
73421;SDS011;61637;47.760;-122.022;2024-01-11T09:02:01;24.3;;;22.1;;
73421;SDS011;61637;47.760;-122.022;2024-01-11T09:04:01;24.3;;;21.8;;
73421;SDS011;61637;47.760;-122.022;2024-01-11T09:06:01;21.9;;;20.0;;
73421;SDS011;61637;47.760;-122.022;2024-01-11T09:08:01;22.2;;;20.3;;
73421;SDS011;61637;47.760;-122.022;2024-01-11T09:10:02;23.8;;;21.4;;
73421;SDS011;61637;47.760;-122.022;2024-01-11T09:12:01;21.7;;;19.7;;
73421;SDS011;61637;47.760;-122.022;2024-01-11T09:14:01;22.1;;;20.1;;
73421;SDS011;61637;47.760;-122.022;2024-01-11T09:16:01;21.7;;;19.7;;
73421;SDS011;61637;47.760;-122.022;2024-01-11T09:18:01;21.3;;;19.3;;
73421;SDS011;61637;47.760;-122.022;2024-01-11T09:20:01;22.1;;;20.1;;
73421;SDS011;61637;47.760;-122.022;2024-01-11T09:22:01;21.6;;;19.6;;
73421;SDS011;61637;47.760;-122.022;2024-01-11T09:24:01;20.5;;;18.8;;
73421;SDS011;61637;47.760;-122.022;2024-01-11T09:26:02;23.8;;;21.6;;
73421;SDS011;61637;47.760;-122.022;2024-01-11T09:28:01;22.2;;;20.2;;
73421;SDS011;61637;47.760;-122.022;2024-01-11T09:30:01;23.4;;;20.9;;
73421;SDS011;61637;47.760;-122.022;2024-01-11T09:32:02;22.7;;;20.7;;
73421;SDS011;61637;47.760;-122.022;2024-01-11T09:34:01;22.6;;;20.6;;
73421;SDS011;61637;47.760;-122.022;2024-01-11T09:36:01;22.6;;;20.6;;
73421;SDS011;61637;47.760;-122.022;2024-01-11T09:38:01;22.6;;;20.5;;
73421;SDS011;61637;47.760;-122.022;2024-01-11T09:40:01;23.1;;;20.9;;
73421;SDS011;61637;47.760;-122.022;2024-01-11T09:42:06;23.2;;;21.0;;
73421;SDS011;61637;47.760;-122.022;2024-01-11T09:44:04;25.5;;;23.1;;
73421;SDS011;61637;47.760;-122.022;2024-01-11T09:46:04;24.4;;;22.2;;
73421;SDS011;61637;47.760;-122.022;2024-01-11T09:48:01;24.3;;;22.0;;
73421;SDS011;61637;47.760;-122.022;2024-01-11T09:50:02;25.7;;;23.2;;
73421;SDS011;61637;47.760;-122.022;2024-01-11T09:52:02;23.0;;;21.0;;
73421;SDS011;61637;47.760;-122.022;2024-01-11T09:54:01;23.7;;;21.3;;
73421;SDS011;61637;47.760;-122.022;2024-01-11T09:56:02;23.0;;;20.8;;
73421;SDS011;61637;47.760;-122.022;2024-01-11T09:58:01;22.6;;;20.5;;
73421;SDS011;61637;47.760;-122.022;2024-01-11T10:00:04;22.6;;;20.6;;
73421;SDS011;61637;47.760;-122.022;2024-01-11T10:02:02;24.8;;;22.2;;
73421;SDS011;61637;47.760;-122.022;2024-01-11T10:04:01;24.3;;;21.9;;
73421;SDS011;61637;47.760;-122.022;2024-01-11T10:06:03;26.7;;;24.1;;
73421;SDS011;61637;47.760;-122.022;2024-01-11T10:08:01;23.3;;;21.2;;
73421;SDS011;61637;47.760;-122.022;2024-01-11T10:10:01;22.3;;;20.1;;
73421;SDS011;61637;47.760;-122.022;2024-01-11T10:12:01;21.5;;;19.5;;
73421;SDS011;61637;47.760;-122.022;2024-01-11T10:14:01;21.4;;;19.4;;
73421;SDS011;61637;47.760;-122.022;2024-01-11T10:16:05;23.2;;;20.9;;
73421;SDS011;61637;47.760;-122.022;2024-01-11T10:18:01;24.3;;;22.0;;
73421;SDS011;61637;47.760;-122.022;2024-01-11T10:20:01;21.5;;;19.5;;
73421;SDS011;61637;47.760;-122.022;2024-01-11T10:22:01;21.1;;;19.3;;
73421;SDS011;61637;47.760;-122.022;2024-01-11T10:24:01;21.1;;;19.2;;
73421;SDS011;61637;47.760;-122.022;2024-01-11T10:26:02;19.8;;;18.0;;
73421;SDS011;61637;47.760;-122.022;2024-01-11T10:28:01;19.0;;;17.3;;
73421;SDS011;61637;47.760;-122.022;2024-01-11T10:30:02;18.9;;;17.2;;
73421;SDS011;61637;47.760;-122.022;2024-01-11T10:32:03;18.3;;;16.5;;
73421;SDS011;61637;47.760;-122.022;2024-01-11T10:34:01;18.8;;;17.1;;
73421;SDS011;61637;47.760;-122.022;2024-01-11T10:36:01;18.6;;;16.8;;
73421;SDS011;61637;47.760;-122.022;2024-01-11T10:38:05;17.6;;;15.9;;
73421;SDS011;61637;47.760;-122.022;2024-01-11T10:40:04;18.8;;;17.1;;
73421;SDS011;61637;47.760;-122.022;2024-01-11T10:42:05;17.9;;;16.3;;
73421;SDS011;61637;47.760;-122.022;2024-01-11T10:44:02;17.1;;;15.4;;
73421;SDS011;61637;47.760;-122.022;2024-01-11T10:46:02;16.6;;;15.1;;
73421;SDS011;61637;47.760;-122.022;2024-01-11T10:48:02;17.3;;;15.7;;
73421;SDS011;61637;47.760;-122.022;2024-01-11T10:50:01;17.7;;;15.9;;
73421;SDS011;61637;47.760;-122.022;2024-01-11T10:52:03;15.5;;;14.1;;
73421;SDS011;61637;47.760;-122.022;2024-01-11T10:54:01;16.9;;;15.2;;
73421;SDS011;61637;47.760;-122.022;2024-01-11T10:56:02;17.2;;;15.4;;
73421;SDS011;61637;47.760;-122.022;2024-01-11T10:58:01;17.0;;;15.5;;
73421;SDS011;61637;47.760;-122.022;2024-01-11T11:00:02;16.9;;;15.2;;
73421;SDS011;61637;47.760;-122.022;2024-01-11T11:02:05;16.5;;;14.9;;
73421;SDS011;61637;47.760;-122.022;2024-01-11T11:04:02;18.4;;;16.7;;
73421;SDS011;61637;47.760;-122.022;2024-01-11T11:06:04;18.0;;;16.3;;
73421;SDS011;61637;47.760;-122.022;2024-01-11T11:08:02;18.1;;;16.3;;
73421;SDS011;61637;47.760;-122.022;2024-01-11T11:10:03;18.3;;;16.4;;
73421;SDS011;61637;47.760;-122.022;2024-01-11T11:12:01;18.7;;;16.7;;
73421;SDS011;61637;47.760;-122.022;2024-01-11T11:14:01;20.4;;;18.5;;
73421;SDS011;61637;47.760;-122.022;2024-01-11T11:16:01;20.0;;;18.2;;
73421;SDS011;61637;47.760;-122.022;2024-01-11T11:18:01;18.1;;;16.2;;
73421;SDS011;61637;47.760;-122.022;2024-01-11T11:20:01;18.4;;;16.7;;
73421;SDS011;61637;47.760;-122.022;2024-01-11T11:22:03;17.6;;;15.9;;
73421;SDS011;61637;47.760;-122.022;2024-01-11T11:24:01;17.6;;;15.9;;
73421;SDS011;61637;47.760;-122.022;2024-01-11T11:26:01;18.3;;;16.6;;
73421;SDS011;61637;47.760;-122.022;2024-01-11T11:28:02;17.9;;;16.1;;
73421;SDS011;61637;47.760;-122.022;2024-01-11T11:30:01;17.7;;;16.0;;
73421;SDS011;61637;47.760;-122.022;2024-01-11T11:32:02;18.8;;;16.9;;